Overseas Luzon — V7NE5 — position and weather

sailwx.info

Track history (hours):
 
Tides and Currents Weather Stations Pressure Air Temp Water Temp Dewpoint Dewpoint Depression Visibility Wind Speed Wind Dir Waves Ship Positions

Overseas Luzon

Last reported at 2015-Aug-27 19:29 UTC. Time now 2015-Sep-01 20:25 UTC.
Position N 01°18' E 103°39'.

Length 228 m; draft 7.8 m.

Type: Tanker. MMSI: 538002946.

Date/timePositionNaut miles runAvg speedWind from/ knotsBaromVisibWave heightAir tempDewpointWater temp
2015-Aug-27 19:29N 01°18' E 103°39'0 0.0
2015-Aug-27 18:26N 01°18' E 103°39'0 0.0
2015-Aug-27 17:25N 01°18' E 103°39'0 0.0
2015-Aug-27 14:25N 01°18' E 103°39'0 0.0
2015-Aug-27 13:20N 01°18' E 103°39'0 0.0
2015-Aug-27 07:20N 01°18' E 103°39'0 0.0
2015-Aug-27 05:26N 01°18' E 103°39'0 0.0
2015-Aug-27 02:30N 01°18' E 103°39'0 0.0
2015-Aug-26 13:28N 01°18' E 103°39'0 0.0
2015-Aug-26 12:32N 01°18' E 103°39'0 0.0
2015-Aug-26 07:03N 01°18' E 103°39'0 0.0
2015-Aug-26 06:33N 01°18' E 103°39'3 0.1
2015-Aug-24 05:29N 01°15' E 103°39'9 8.8
2015-Aug-24 04:28N 01°11' E 103°47'8 8.0
2015-Aug-24 03:26N 01°16' E 103°54'0 0.0
2015-Aug-24 02:26N 01°16' E 103°54'0 0.0
2015-Aug-24 01:32N 01°16' E 103°54'0 0.0
2015-Aug-23 23:26N 01°16' E 103°54'0 0.0
2015-Aug-23 22:26N 01°16' E 103°54'0 0.0
2015-Aug-23 20:32N 01°16' E 103°54'0 0.0
2015-Aug-23 19:32N 01°16' E 103°54'0 0.0
2015-Aug-23 18:32N 01°16' E 103°54'0 0.0
2015-Aug-23 17:32N 01°16' E 103°54'0 0.0
2015-Aug-23 16:26N 01°16' E 103°54'0 0.0
2015-Aug-23 14:29N 01°16' E 103°54'0 0.0
2015-Aug-23 13:32N 01°16' E 103°54'0 0.0
2015-Aug-23 12:32N 01°16' E 103°54'0 0.0
2015-Aug-23 11:29N 01°16' E 103°54'0 0.0
2015-Aug-23 09:11N 01°16' E 103°54'0 0.1
2015-Aug-23 08:26N 01°16' E 103°54'0 0.0
2015-Aug-23 07:26N 01°16' E 103°54'0 0.1
2015-Aug-23 06:32N 01°16' E 103°54'0 0.0
2015-Aug-23 01:26N 01°16' E 103°54'0 0.0
2015-Aug-22 23:26N 01°16' E 103°54'0 0.0
2015-Aug-22 21:23N 01°16' E 103°54'0 0.0
2015-Aug-22 20:32N 01°16' E 103°54'0 0.0
2015-Aug-22 19:14N 01°16' E 103°54'0 0.0
2015-Aug-22 18:20N 01°16' E 103°54'0 0.0
2015-Aug-22 17:32N 01°16' E 103°54'0 0.0
2015-Aug-22 16:14N 01°16' E 103°54'0 0.0
2015-Aug-22 14:32N 01°16' E 103°54'0 0.1
2015-Aug-22 13:29N 01°16' E 103°54'0 0.1
2015-Aug-22 12:32N 01°16' E 103°54'0 0.0
2015-Aug-22 10:34N 01°16' E 103°54'4 4.4
2015-Aug-22 09:33N 01°16' E 103°59'  
Track history (hours):
 
Tides and Currents Weather Stations Pressure Air Temp Water Temp Dewpoint Dewpoint Depression Visibility Wind Speed Wind Dir Waves Ship Positions

Overseas Luzon

Last reported at 2015-Aug-27 19:29 UTC. Time now 2015-Sep-01 20:25 UTC.
Position N 01°18' E 103°39'.

Length 228 m; draft 7.8 m.

Type: Tanker. MMSI: 538002946.

Date/timePositionNaut miles runAvg speedWind from/ knotsBaromVisibWave heightAir tempDewpointWater temp
2015-Aug-27 19:29N 01°18' E 103°39'0 0.0
2015-Aug-27 18:26N 01°18' E 103°39'0 0.0
2015-Aug-27 17:25N 01°18' E 103°39'0 0.0
2015-Aug-27 14:25N 01°18' E 103°39'0 0.0
2015-Aug-27 13:20N 01°18' E 103°39'0 0.0
2015-Aug-27 07:20N 01°18' E 103°39'0 0.0
2015-Aug-27 05:26N 01°18' E 103°39'0 0.0
2015-Aug-27 02:30N 01°18' E 103°39'0 0.0
2015-Aug-26 13:28N 01°18' E 103°39'0 0.0
2015-Aug-26 12:32N 01°18' E 103°39'0 0.0
2015-Aug-26 07:03N 01°18' E 103°39'0 0.0
2015-Aug-26 06:33N 01°18' E 103°39'3 0.1
2015-Aug-24 05:29N 01°15' E 103°39'9 8.8
2015-Aug-24 04:28N 01°11' E 103°47'8 8.0
2015-Aug-24 03:26N 01°16' E 103°54'0 0.0
2015-Aug-24 02:26N 01°16' E 103°54'0 0.0
2015-Aug-24 01:32N 01°16' E 103°54'0 0.0
2015-Aug-23 23:26N 01°16' E 103°54'0 0.0
2015-Aug-23 22:26N 01°16' E 103°54'0 0.0
2015-Aug-23 20:32N 01°16' E 103°54'0 0.0
2015-Aug-23 19:32N 01°16' E 103°54'0 0.0
2015-Aug-23 18:32N 01°16' E 103°54'0 0.0
2015-Aug-23 17:32N 01°16' E 103°54'0 0.0
2015-Aug-23 16:26N 01°16' E 103°54'0 0.0
2015-Aug-23 14:29N 01°16' E 103°54'0 0.0
2015-Aug-23 13:32N 01°16' E 103°54'0 0.0
2015-Aug-23 12:32N 01°16' E 103°54'0 0.0
2015-Aug-23 11:29N 01°16' E 103°54'0 0.0
2015-Aug-23 09:11N 01°16' E 103°54'0 0.1
2015-Aug-23 08:26N 01°16' E 103°54'0 0.0
2015-Aug-23 07:26N 01°16' E 103°54'0 0.1
2015-Aug-23 06:32N 01°16' E 103°54'0 0.0
2015-Aug-23 01:26N 01°16' E 103°54'0 0.0
2015-Aug-22 23:26N 01°16' E 103°54'0 0.0
2015-Aug-22 21:23N 01°16' E 103°54'0 0.0
2015-Aug-22 20:32N 01°16' E 103°54'0 0.0
2015-Aug-22 19:14N 01°16' E 103°54'0 0.0
2015-Aug-22 18:20N 01°16' E 103°54'0 0.0
2015-Aug-22 17:32N 01°16' E 103°54'0 0.0
2015-Aug-22 16:14N 01°16' E 103°54'0 0.0
2015-Aug-22 14:32N 01°16' E 103°54'0 0.1
2015-Aug-22 13:29N 01°16' E 103°54'0 0.1
2015-Aug-22 12:32N 01°16' E 103°54'0 0.0
2015-Aug-22 10:34N 01°16' E 103°54'4 4.4
2015-Aug-22 09:33N 01°16' E 103°59'  

Dump ship's entire track history